createdAt,value
2018-04-08T00:02:02.285Z,23.20
2018-04-08T00:04:29.845Z,23.20
2018-04-08T00:06:58.143Z,23.20
2018-04-08T00:09:25.704Z,23.20
2018-04-08T00:11:53.199Z,23.10
2018-04-08T00:14:23.597Z,23.20
2018-04-08T00:16:51.132Z,23.20
2018-04-08T00:19:19.415Z,23.10
2018-04-08T00:21:47.711Z,23.10
2018-04-08T00:24:15.164Z,23.10
2018-04-08T00:26:42.700Z,23.10
2018-04-08T00:29:10.964Z,23.10
2018-04-08T00:31:38.463Z,23.10
2018-04-08T00:34:05.989Z,23.10
2018-04-08T00:36:34.231Z,23.10
2018-04-08T00:39:01.764Z,23.00
2018-04-08T00:41:29.261Z,23.10
2018-04-08T00:43:56.777Z,23.00
2018-04-08T00:46:24.258Z,23.00
2018-04-08T00:48:51.784Z,23.00
2018-04-08T00:51:19.294Z,23.00
2018-04-08T00:53:47.555Z,23.00
2018-04-08T00:56:15.052Z,23.00
2018-04-08T00:58:43.335Z,23.00
2018-04-08T01:01:11.626Z,23.00
2018-04-08T01:03:39.104Z,23.00
2018-04-08T01:06:06.616Z,23.00
2018-04-08T01:08:34.149Z,23.00
2018-04-08T01:11:01.656Z,23.00
2018-04-08T01:13:29.132Z,23.00
2018-04-08T01:15:56.655Z,23.00
2018-04-08T01:18:24.914Z,23.00
2018-04-08T01:20:52.433Z,23.00
2018-04-08T01:23:19.944Z,23.00
2018-04-08T01:25:48.208Z,23.00
2018-04-08T01:28:15.733Z,23.00
2018-04-08T01:30:43.233Z,23.00
2018-04-08T01:33:11.505Z,23.00
2018-04-08T01:35:39.034Z,23.00
2018-04-08T01:38:06.628Z,22.90
2018-04-08T01:40:34.223Z,22.90
2018-04-08T01:43:01.672Z,23.00
2018-04-08T01:45:29.322Z,22.90
2018-04-08T01:47:57.572Z,22.90
2018-04-08T01:50:25.054Z,22.90
2018-04-08T01:52:53.317Z,22.90
2018-04-08T01:55:20.880Z,22.90
2018-04-08T01:57:49.162Z,22.90
2018-04-08T02:00:17.429Z,22.90
2018-04-08T02:02:45.719Z,22.90
2018-04-08T02:05:13.978Z,22.90
2018-04-08T02:07:41.494Z,22.90
2018-04-08T02:10:08.989Z,22.90
2018-04-08T02:12:36.590Z,22.90
2018-04-08T02:15:04.121Z,22.90
2018-04-08T02:17:32.407Z,22.90
2018-04-08T02:19:59.948Z,22.90
2018-04-08T02:22:27.436Z,22.90
2018-04-08T02:24:54.932Z,22.90
2018-04-08T02:27:22.450Z,22.90
2018-04-08T02:29:49.952Z,22.90
2018-04-08T02:32:17.470Z,22.90
2018-04-08T02:34:44.951Z,22.90
2018-04-08T02:37:12.548Z,22.90
2018-04-08T02:39:40.077Z,22.90
2018-04-08T02:42:07.586Z,22.90
2018-04-08T02:44:35.070Z,22.90
2018-04-08T02:47:02.567Z,22.90
2018-04-08T02:49:30.081Z,22.90
2018-04-08T02:51:57.565Z,22.90
2018-04-08T02:54:25.084Z,22.90
2018-04-08T02:56:53.346Z,22.90
2018-04-08T02:59:21.612Z,22.90
2018-04-08T03:01:49.117Z,22.90
2018-04-08T03:04:16.611Z,22.90
2018-04-08T03:06:44.109Z,22.90
2018-04-08T03:09:11.659Z,22.90
2018-04-08T03:11:39.937Z,22.90
2018-04-08T03:14:08.231Z,22.80
2018-04-08T03:16:35.725Z,22.80
2018-04-08T03:19:03.233Z,22.90
2018-04-08T03:21:31.484Z,22.90
2018-04-08T03:23:59.800Z,22.90
2018-04-08T03:26:27.293Z,22.80
2018-04-08T03:28:54.784Z,22.90
2018-04-08T03:31:22.301Z,22.80
2018-04-08T03:33:49.795Z,22.80
2018-04-08T03:36:17.305Z,22.80
2018-04-08T03:38:44.824Z,22.80
2018-04-08T03:41:13.110Z,22.80
2018-04-08T03:43:41.401Z,22.80
2018-04-08T03:46:08.934Z,22.80
2018-04-08T03:48:36.441Z,22.80
2018-04-08T03:51:03.978Z,22.80
2018-04-08T03:53:31.467Z,22.80
2018-04-08T03:55:58.982Z,22.80
2018-04-08T03:58:27.257Z,22.80
2018-04-08T04:00:55.517Z,22.80
2018-04-08T04:03:23.078Z,22.80
2018-04-08T04:05:50.585Z,22.80
2018-04-08T04:08:18.089Z,22.80
2018-04-08T04:10:45.583Z,22.80
2018-04-08T04:13:13.163Z,22.80
2018-04-08T04:15:41.426Z,22.80
2018-04-08T04:18:20.871Z,22.80
2018-04-08T04:21:00.360Z,22.80
2018-04-08T04:23:39.789Z,22.80
2018-04-08T04:26:19.223Z,22.90
2018-04-08T04:28:46.738Z,22.80
2018-04-08T04:31:14.253Z,22.80
2018-04-08T04:33:41.857Z,22.80
2018-04-08T04:36:09.362Z,22.80
2018-04-08T04:38:36.866Z,22.80
2018-04-08T04:41:04.371Z,22.80
2018-04-08T04:43:31.905Z,22.80
2018-04-08T04:45:59.417Z,22.80
2018-04-08T04:48:27.899Z,22.80
2018-04-08T04:50:56.173Z,22.80
2018-04-08T04:53:24.433Z,22.80
2018-04-08T04:55:51.963Z,22.80
2018-04-08T04:58:19.593Z,22.80
2018-04-08T05:00:47.097Z,22.80
2018-04-08T05:03:14.587Z,22.80
2018-04-08T05:05:42.880Z,22.80
2018-04-08T05:08:10.403Z,22.80
2018-04-08T05:10:37.915Z,22.90
2018-04-08T05:13:05.457Z,22.90
2018-04-08T05:15:32.969Z,22.80
2018-04-08T05:18:00.485Z,22.90
2018-04-08T05:20:28.004Z,22.90
2018-04-08T05:22:55.511Z,22.90
2018-04-08T05:25:23.010Z,22.80
2018-04-08T05:27:50.600Z,22.90
2018-04-08T05:30:18.894Z,22.90
2018-04-08T05:32:46.428Z,22.90
2018-04-08T05:35:14.724Z,22.90
2018-04-08T05:37:42.251Z,22.90
2018-04-08T05:40:09.749Z,22.90
2018-04-08T05:42:37.244Z,22.90
2018-04-08T05:45:04.796Z,22.90
2018-04-08T05:47:32.296Z,22.90
2018-04-08T05:50:00.567Z,22.90
2018-04-08T05:52:28.910Z,23.00
2018-04-08T05:54:56.387Z,22.90
2018-04-08T05:57:23.897Z,23.00
2018-04-08T05:59:51.418Z,23.00
2018-04-08T06:02:19.657Z,23.10
2018-04-08T06:04:47.184Z,23.10
2018-04-08T06:07:14.681Z,23.20
2018-04-08T06:09:42.223Z,23.20
2018-04-08T06:12:09.732Z,23.20
2018-04-08T06:14:38.015Z,23.30
2018-04-08T06:17:06.299Z,23.40
2018-04-08T06:19:34.574Z,23.40
2018-04-08T06:22:02.847Z,23.40
2018-04-08T06:24:31.120Z,23.40
2018-04-08T06:26:59.395Z,23.30
2018-04-08T06:29:27.644Z,23.30
2018-04-08T06:31:55.156Z,23.30
2018-04-08T06:34:22.646Z,23.30
2018-04-08T06:36:50.178Z,23.30
2018-04-08T06:39:17.700Z,23.30
2018-04-08T06:41:45.991Z,23.30
2018-04-08T06:44:14.288Z,23.20
2018-04-08T06:46:41.790Z,23.20
2018-04-08T06:49:09.316Z,23.20
2018-04-08T06:51:37.238Z,23.20
2018-04-08T06:54:05.608Z,23.20
2018-04-08T06:56:33.866Z,23.20
2018-04-08T06:59:01.479Z,23.20
2018-04-08T07:01:28.969Z,23.20
2018-04-08T07:03:56.463Z,23.20
2018-04-08T07:06:23.964Z,23.20
2018-04-08T07:08:51.488Z,23.30
2018-04-08T07:11:19.778Z,23.30
2018-04-08T07:13:47.362Z,23.30
2018-04-08T07:16:14.915Z,23.30
2018-04-08T07:18:42.514Z,23.30
2018-04-08T07:21:09.975Z,23.30
2018-04-08T07:23:38.340Z,23.40
2018-04-08T07:26:05.864Z,23.50
2018-04-08T07:28:33.365Z,23.60
2018-04-08T07:31:00.980Z,23.60
2018-04-08T07:33:28.459Z,23.70
2018-04-08T07:35:55.950Z,23.90
2018-04-08T07:38:23.552Z,24.00
2018-04-08T07:40:51.179Z,24.40
2018-04-08T07:43:18.653Z,24.50
2018-04-08T07:45:46.938Z,24.60
2018-04-08T07:48:15.218Z,24.60
2018-04-08T07:50:42.716Z,24.60
2018-04-08T07:53:10.216Z,24.70
2018-04-08T07:55:38.482Z,24.70
2018-04-08T07:58:06.106Z,24.70
2018-04-08T08:00:33.656Z,24.70
2018-04-08T08:03:01.178Z,24.70
2018-04-08T08:05:29.426Z,24.80
2018-04-08T08:07:56.954Z,24.80
2018-04-08T08:10:24.488Z,24.90
2018-04-08T08:12:51.998Z,24.90
2018-04-08T08:15:19.495Z,24.90
2018-04-08T08:17:46.992Z,25.00
2018-04-08T08:20:14.571Z,25.10
2018-04-08T08:22:42.091Z,25.30
2018-04-08T08:25:09.735Z,25.30
2018-04-08T08:27:37.983Z,25.60
2018-04-08T08:30:06.261Z,25.50
2018-04-08T08:32:33.767Z,25.50
2018-04-08T08:35:01.260Z,25.50
2018-04-08T08:37:28.753Z,25.40
2018-04-08T08:39:57.002Z,25.40
2018-04-08T08:42:24.497Z,25.40
2018-04-08T08:44:51.968Z,25.10
2018-04-08T08:47:19.462Z,25.00
2018-04-08T08:49:46.949Z,24.80
2018-04-08T08:52:14.443Z,24.60
2018-04-08T08:54:41.941Z,24.30
2018-04-08T08:57:09.520Z,24.10
2018-04-08T08:59:37.031Z,23.90
2018-04-08T09:02:04.524Z,23.80
2018-04-08T09:04:32.058Z,23.80
2018-04-08T09:06:59.546Z,23.70
2018-04-08T09:09:27.036Z,23.50
2018-04-08T09:11:54.595Z,23.40
2018-04-08T09:14:22.222Z,23.40
2018-04-08T09:16:49.750Z,23.40
2018-04-08T09:19:22.947Z,23.30
2018-04-08T09:21:56.296Z,23.30
2018-04-08T09:24:34.456Z,23.20
2018-04-08T09:27:01.994Z,23.20
2018-04-08T09:29:29.546Z,23.20
2018-04-08T09:31:57.063Z,23.10
2018-04-08T09:34:24.558Z,23.10
2018-04-08T09:36:52.064Z,23.00
2018-04-08T09:39:19.570Z,23.10
2018-04-08T09:41:47.061Z,23.10
2018-04-08T09:44:14.559Z,23.10
2018-04-08T09:46:42.831Z,23.20
2018-04-08T09:49:11.141Z,23.20
2018-04-08T09:51:38.635Z,23.20
2018-04-08T09:54:06.143Z,23.10
2018-04-08T09:56:34.411Z,23.40
2018-04-08T09:59:02.673Z,23.20
2018-04-08T10:01:49.043Z,23.20
2018-04-08T10:04:16.547Z,23.40
2018-04-08T10:06:44.832Z,23.80
2018-04-08T10:09:12.333Z,23.70
2018-04-08T10:11:39.869Z,23.90
2018-04-08T10:14:07.384Z,23.80
2018-04-08T10:16:34.917Z,24.00
2018-04-08T10:19:02.405Z,23.90
2018-04-08T10:21:30.654Z,23.70
2018-04-08T10:23:58.167Z,23.70
2018-04-08T10:26:25.648Z,23.60
2018-04-08T10:28:53.284Z,23.80
2018-04-08T10:31:20.768Z,23.80
2018-04-08T10:33:48.303Z,23.80
2018-04-08T10:36:15.871Z,23.80
2018-04-08T10:38:43.435Z,23.90
2018-04-08T10:41:10.921Z,23.90
2018-04-08T10:43:38.423Z,23.80
2018-04-08T10:46:06.680Z,23.50
2018-04-08T10:48:34.263Z,23.50
2018-04-08T10:51:02.562Z,23.30
2018-04-08T10:53:30.037Z,23.30
2018-04-08T10:55:57.579Z,23.30
2018-04-08T10:58:25.089Z,23.20
2018-04-08T11:00:52.599Z,23.20
2018-04-08T11:03:20.067Z,23.20
2018-04-08T11:05:47.700Z,23.20
2018-04-08T11:08:15.949Z,23.20
2018-04-08T11:10:43.484Z,23.20
2018-04-08T11:13:12.239Z,23.20
2018-04-08T11:15:40.066Z,23.30
2018-04-08T11:18:08.547Z,23.40
2018-04-08T11:20:36.861Z,23.40
2018-04-08T11:23:04.393Z,23.40
2018-04-08T11:25:32.672Z,23.30
2018-04-08T11:28:00.212Z,23.30
2018-04-08T11:30:28.716Z,23.30
2018-04-08T11:32:56.291Z,23.30
2018-04-08T11:35:23.854Z,23.20
2018-04-08T11:37:51.348Z,23.20
2018-04-08T11:40:18.850Z,23.20
2018-04-08T11:42:47.919Z,23.30
2018-04-08T11:45:16.173Z,23.20
2018-04-08T11:47:43.698Z,23.20
2018-04-08T11:50:11.198Z,23.20
2018-04-08T11:52:38.694Z,23.20
2018-04-08T11:55:07.074Z,23.20
2018-04-08T11:57:35.472Z,23.20
2018-04-08T12:00:03.014Z,23.20
2018-04-08T12:02:31.289Z,23.10
2018-04-08T12:04:58.807Z,23.20
2018-04-08T12:07:26.339Z,23.20
2018-04-08T12:09:53.886Z,23.30
2018-04-08T12:12:21.381Z,23.30
2018-04-08T12:14:48.886Z,23.20
2018-04-08T12:17:16.360Z,23.20
2018-04-08T12:19:44.823Z,23.20
2018-04-08T12:22:12.320Z,23.30
2018-04-08T12:24:39.830Z,23.40
2018-04-08T12:27:08.093Z,23.40
2018-04-08T12:29:36.367Z,23.40
2018-04-08T12:32:04.646Z,23.30
2018-04-08T12:34:32.907Z,23.30
2018-04-08T12:37:00.772Z,23.30
2018-04-08T12:39:29.024Z,23.30
2018-04-08T12:41:56.516Z,23.30
2018-04-08T12:44:23.978Z,23.20
2018-04-08T12:46:52.256Z,23.20
2018-04-08T12:49:19.734Z,23.20
2018-04-08T12:51:47.273Z,23.20
2018-04-08T12:54:14.738Z,23.20
2018-04-08T12:56:43.006Z,23.30
2018-04-08T12:59:11.322Z,23.30
2018-04-08T13:01:38.816Z,23.30
2018-04-08T13:04:06.310Z,23.30
2018-04-08T13:06:34.600Z,23.50
2018-04-08T13:09:02.121Z,23.40
2018-04-08T13:11:29.701Z,23.40
2018-04-08T13:13:57.986Z,23.40
2018-04-08T13:16:26.224Z,23.40
2018-04-08T13:18:53.752Z,23.40
2018-04-08T13:21:21.270Z,23.50
2018-04-08T13:23:49.507Z,23.60
2018-04-08T13:26:17.025Z,23.60
2018-04-08T13:28:44.498Z,23.60
2018-04-08T13:31:11.980Z,23.70
2018-04-08T13:33:39.468Z,23.60
2018-04-08T13:36:07.742Z,23.70
2018-04-08T13:38:36.024Z,23.60
2018-04-08T13:41:04.272Z,23.60
2018-04-08T13:43:31.772Z,23.60
2018-04-08T13:46:00.038Z,23.60
2018-04-08T13:48:28.314Z,23.60
2018-04-08T13:50:56.604Z,23.60
2018-04-08T13:53:24.140Z,23.60
2018-04-08T13:55:51.750Z,23.60
2018-04-08T13:58:19.302Z,23.60
2018-04-08T14:00:46.844Z,23.70
2018-04-08T14:03:14.349Z,24.10
2018-04-08T14:05:41.884Z,24.30
2018-04-08T14:08:09.414Z,24.40
2018-04-08T14:10:36.998Z,24.50
2018-04-08T14:13:04.487Z,24.50
2018-04-08T14:15:32.012Z,24.50
2018-04-08T14:17:59.485Z,24.40
2018-04-08T14:20:26.976Z,24.40
2018-04-08T14:22:54.593Z,24.40
2018-04-08T14:25:22.061Z,24.40
2018-04-08T14:27:49.554Z,24.20
2018-04-08T14:30:17.788Z,23.90
2018-04-08T14:32:45.286Z,23.90
2018-04-08T14:35:12.769Z,24.00
2018-04-08T14:37:41.032Z,23.90
2018-04-08T14:40:09.312Z,24.00
2018-04-08T14:42:37.566Z,23.90
2018-04-08T14:45:05.855Z,23.90
2018-04-08T14:47:34.126Z,23.80
2018-04-08T14:50:01.752Z,23.80
2018-04-08T14:52:29.385Z,23.80
2018-04-08T14:54:56.897Z,23.70
2018-04-08T14:57:24.410Z,23.60
2018-04-08T14:59:51.864Z,23.70
2018-04-08T15:02:19.430Z,23.60
2018-04-08T15:04:47.657Z,23.60
2018-04-08T15:07:16.673Z,23.70
2018-04-08T15:09:44.950Z,23.70
2018-04-08T15:12:13.227Z,23.70
2018-04-08T15:14:41.529Z,23.80
2018-04-08T15:17:09.006Z,23.80
2018-04-08T15:19:36.501Z,23.80
2018-04-08T15:22:04.032Z,23.90
2018-04-08T15:24:31.519Z,23.90
2018-04-08T15:26:59.017Z,24.00
2018-04-08T15:29:26.638Z,24.10
2018-04-08T15:31:54.108Z,24.10
2018-04-08T15:34:22.377Z,23.80
2018-04-08T15:36:50.662Z,23.70
2018-04-08T15:39:18.962Z,23.60
2018-04-08T15:41:46.454Z,23.60
2018-04-08T15:44:13.947Z,23.60
2018-04-08T15:46:42.248Z,23.50
2018-04-08T15:49:11.463Z,23.70
2018-04-08T15:51:39.001Z,23.70
2018-04-08T15:54:06.477Z,23.70
2018-04-08T15:56:34.000Z,23.70
2018-04-08T15:59:02.242Z,23.70
2018-04-08T16:01:29.863Z,23.70
2018-04-08T16:03:57.381Z,23.70
2018-04-08T16:06:24.845Z,23.70
2018-04-08T16:08:53.112Z,23.70
2018-04-08T16:11:20.608Z,23.70
2018-04-08T16:13:48.083Z,23.80
2018-04-08T16:16:15.735Z,23.80
2018-04-08T16:18:43.262Z,23.90
2018-04-08T16:21:11.527Z,23.90
2018-04-08T16:23:39.018Z,23.90
2018-04-08T16:26:06.571Z,23.80
2018-04-08T16:28:34.051Z,23.90
2018-04-08T16:31:01.588Z,23.90
2018-04-08T16:33:29.084Z,23.90
2018-04-08T16:35:56.629Z,23.80
2018-04-08T16:38:24.133Z,23.80
2018-04-08T16:40:51.754Z,23.80
2018-04-08T16:43:19.264Z,23.80
2018-04-08T16:45:46.755Z,23.80
2018-04-08T16:48:14.261Z,23.80
2018-04-08T16:50:41.861Z,23.80
2018-04-08T16:53:10.125Z,23.80
2018-04-08T16:55:38.375Z,23.80
2018-04-08T16:58:05.894Z,23.80
2018-04-08T17:00:33.395Z,23.90
2018-04-08T17:03:00.929Z,23.90
2018-04-08T17:05:28.464Z,23.80
2018-04-08T17:07:55.978Z,23.80
2018-04-08T17:10:23.484Z,23.90
2018-04-08T17:12:50.993Z,23.90
2018-04-08T17:15:18.512Z,23.80
2018-04-08T17:17:46.065Z,23.90
2018-04-08T17:20:13.562Z,23.90
2018-04-08T17:22:41.067Z,23.90
2018-04-08T17:25:08.606Z,23.90
2018-04-08T17:27:36.884Z,23.80
2018-04-08T17:30:05.116Z,23.70
2018-04-08T17:32:32.635Z,23.80
2018-04-08T17:35:00.157Z,23.70
2018-04-08T17:37:27.686Z,23.70
2018-04-08T17:39:55.179Z,23.70
2018-04-08T17:42:23.461Z,23.70
2018-04-08T17:44:50.966Z,23.70
2018-04-08T17:47:18.467Z,23.70
2018-04-08T17:49:45.971Z,23.70
2018-04-08T17:52:13.475Z,23.80
2018-04-08T17:54:41.060Z,23.80
2018-04-08T17:57:09.296Z,23.80
2018-04-08T17:59:36.830Z,23.80
2018-04-08T18:02:04.326Z,23.80
2018-04-08T18:04:31.877Z,23.80
2018-04-08T18:06:59.486Z,23.80
2018-04-08T18:09:27.058Z,23.80
2018-04-08T18:11:54.561Z,23.80
2018-04-08T18:14:22.040Z,23.80
2018-04-08T18:16:50.326Z,23.80
2018-04-08T18:19:18.576Z,23.80
2018-04-08T18:21:46.083Z,23.80
2018-04-08T18:24:13.616Z,23.70
2018-04-08T18:26:41.889Z,23.70
2018-04-08T18:29:10.148Z,23.70
2018-04-08T18:31:37.680Z,23.70
2018-04-08T18:34:05.190Z,23.70
2018-04-08T18:36:33.465Z,23.70
2018-04-08T18:39:01.811Z,23.70
2018-04-08T18:41:29.238Z,23.70
2018-04-08T18:43:56.741Z,23.70
2018-04-08T18:46:24.304Z,23.70
2018-04-08T18:48:52.565Z,23.70
2018-04-08T18:51:20.166Z,23.70
2018-04-08T18:53:47.668Z,23.70
2018-04-08T18:56:15.165Z,23.70
2018-04-08T18:58:44.188Z,23.50
2018-04-08T19:01:11.690Z,23.40
2018-04-08T19:03:39.202Z,23.40
2018-04-08T19:06:06.733Z,23.40
2018-04-08T19:08:34.991Z,23.30
2018-04-08T19:11:02.562Z,23.20
2018-04-08T19:13:30.844Z,23.20
2018-04-08T19:15:59.151Z,23.20
2018-04-08T19:18:26.632Z,23.10
2018-04-08T19:20:54.122Z,23.20
2018-04-08T19:23:21.625Z,23.10
2018-04-08T19:25:49.158Z,23.10
2018-04-08T19:28:17.384Z,23.00
2018-04-08T19:30:44.878Z,23.00
2018-04-08T19:33:12.434Z,23.00
2018-04-08T19:35:39.922Z,22.90
2018-04-08T19:38:07.428Z,22.90
2018-04-08T19:40:34.880Z,22.90
2018-04-08T19:43:02.416Z,22.90
2018-04-08T19:45:29.900Z,22.90
2018-04-08T19:47:57.423Z,22.90
2018-04-08T19:50:24.902Z,23.00
2018-04-08T19:52:52.390Z,23.00
2018-04-08T19:55:19.891Z,23.00
2018-04-08T19:57:47.357Z,23.10
2018-04-08T20:00:14.965Z,23.10
2018-04-08T20:02:43.229Z,23.20
2018-04-08T20:05:10.830Z,23.20
2018-04-08T20:07:39.110Z,23.20
2018-04-08T20:10:06.689Z,23.20
2018-04-08T20:12:34.209Z,23.30
2018-04-08T20:15:02.497Z,23.30
2018-04-08T20:17:29.986Z,23.20
2018-04-08T20:19:57.482Z,23.30
2018-04-08T20:22:24.992Z,23.20
2018-04-08T20:24:52.538Z,23.20
2018-04-08T20:27:20.066Z,23.20
2018-04-08T20:29:47.569Z,23.20
2018-04-08T20:32:15.111Z,23.10
2018-04-08T20:34:43.401Z,23.10
2018-04-08T20:37:10.947Z,23.10
2018-04-08T20:39:38.425Z,23.10
2018-04-08T20:42:05.969Z,23.20
2018-04-08T20:44:33.490Z,23.20
2018-04-08T20:47:01.067Z,23.20
2018-04-08T20:49:29.469Z,23.20
2018-04-08T20:51:56.977Z,23.20
2018-04-08T20:54:24.495Z,23.20
2018-04-08T20:56:51.973Z,23.20
2018-04-08T20:59:19.503Z,23.20
2018-04-08T21:01:47.032Z,23.10
2018-04-08T21:04:14.526Z,23.10
2018-04-08T21:06:42.033Z,23.10
2018-04-08T21:09:09.513Z,23.20
2018-04-08T21:11:37.807Z,23.20
2018-04-08T21:14:05.450Z,23.20
2018-04-08T21:16:33.763Z,23.10
2018-04-08T21:19:01.249Z,23.00
2018-04-08T21:21:28.840Z,23.00
2018-04-08T21:23:56.347Z,23.10
2018-04-08T21:26:23.881Z,23.10
2018-04-08T21:28:53.005Z,23.10
2018-04-08T21:31:20.587Z,23.00
2018-04-08T21:33:48.128Z,22.90
2018-04-08T21:36:15.661Z,22.90
2018-04-08T21:38:43.196Z,22.80
2018-04-08T21:41:11.586Z,22.80
2018-04-08T21:43:39.889Z,22.80
2018-04-08T21:46:07.376Z,22.80
2018-04-08T21:48:34.890Z,22.80
2018-04-08T21:51:02.380Z,22.80
2018-04-08T21:53:29.902Z,22.80
2018-04-08T21:55:57.451Z,22.80
2018-04-08T21:58:25.739Z,22.80
2018-04-08T22:00:53.269Z,22.80
2018-04-08T22:03:21.566Z,22.90
2018-04-08T22:05:49.110Z,22.90
2018-04-08T22:08:17.429Z,22.90
2018-04-08T22:10:44.942Z,22.90
2018-04-08T22:13:12.538Z,22.90
2018-04-08T22:15:40.058Z,22.90
2018-04-08T22:18:07.563Z,22.80
2018-04-08T22:20:35.071Z,22.90
2018-04-08T22:23:02.592Z,22.90
2018-04-08T22:25:30.133Z,22.90
2018-04-08T22:27:57.653Z,22.90
2018-04-08T22:30:25.152Z,22.90
2018-04-08T22:32:52.657Z,23.10
2018-04-08T22:35:20.143Z,23.10
2018-04-08T22:37:48.474Z,23.20
2018-04-08T22:40:16.080Z,23.20
2018-04-08T22:42:44.338Z,23.30
2018-04-08T22:45:13.372Z,23.30
2018-04-08T22:47:40.864Z,23.30
2018-04-08T22:50:08.364Z,23.30
2018-04-08T22:52:36.650Z,23.30
2018-04-08T22:55:04.928Z,23.30
2018-04-08T22:57:32.450Z,23.30
2018-04-08T22:59:59.956Z,23.30
2018-04-08T23:02:27.458Z,23.30
2018-04-08T23:04:54.998Z,23.30
2018-04-08T23:07:22.481Z,23.30
2018-04-08T23:09:49.997Z,23.30
2018-04-08T23:12:17.490Z,23.30
2018-04-08T23:14:45.031Z,23.40
2018-04-08T23:17:12.550Z,23.40
2018-04-08T23:19:40.047Z,23.40
2018-04-08T23:22:07.550Z,23.40
2018-04-08T23:24:35.859Z,23.40
2018-04-08T23:27:03.439Z,23.40
2018-04-08T23:29:30.949Z,23.40
2018-04-08T23:31:59.264Z,23.40
2018-04-08T23:34:26.838Z,23.40
2018-04-08T23:36:54.384Z,23.40
2018-04-08T23:39:21.867Z,23.40
2018-04-08T23:41:49.384Z,23.40
2018-04-08T23:44:16.896Z,23.40
2018-04-08T23:46:44.495Z,23.40
2018-04-08T23:49:12.058Z,23.40
2018-04-08T23:51:39.534Z,23.40
2018-04-08T23:54:07.030Z,23.40
2018-04-08T23:56:34.542Z,23.40
2018-04-08T23:59:02.073Z,23.40
